Terminal Aerodrome Forecast
Issued by NWS Billings, MT

Home | Current Version | Previous Version | Graphics & Text | Print | Product List | Glossary Off
Versions: 1 2 3 4 5 6 7 8 9 10 11 12 13 14 15 16 17 18 19 20 21 22 23 24 25 26 27 28

000
FTUS45 KBYZ 051120
TAFMLS
TAF
KMLS 051120Z 0512/0612 VRB06KT P6SM VCSH SCT090
     FM051700 20010KT P6SM SCT050
     FM052100 VRB06KT P6SM VCTS SCT090CB
     FM060500 27015G33KT P6SM VCTS SCT070CB=

USA.gov is the U.S. government's official web portal to all federal, state and local government web resources and services.